Way, Mississippi
Current Conditions -  °F | °C
As of 6:18 PM on Friday 19 Dec 2014 (Local Time) from KJAN Reporting Station
Light Rain Light Rain  
Wind Chill: 46°   Ceiling: 10000
Heat Index: 46°   Visibility: 9mi
Dew Point: 44°   Wind: 3mph
Humidity: 93%   Direction: 70°ENE
Pressure: 30.17"   Gusts: NA
Location:  32.6346°N, 89.9822°W
Report Text: KJAN 200018Z 07003KT 9SM -RA FEW008 SCT080 OVC100 08/07 A3017 RMK AO2 P0001 T00780067
Loading
Personal Weather Stations






























Interactive Weather Map New forecast layout! Learn more

10-Day Weather Forecast

Advertisements
Track Severe Weather on mobile